Hlavní strana
METAR-TAF:

METAR-TAF

Letiště :

Ouarzazate, Maroko

zeměpisná šířka: 30-56N, zeměpisná délka: 006-54W, výška: 1139 m

Aktuální stav počasí

Zpráva byla vytvořena před 21 minutami, v 13:00 UTC
Západoseverozápadní vítr 4 kt
Teplota 13°C
Vlhkost vzduchu 54%
Tlak 1014 hPa
Viditelnost 10 km a více
Skoro jasno ve výšce 3000 ft
Skoro jasno ve výšce 4000 ft, Vertikální cumulus.

METAR: GMMZ 011300Z 29004KT 9999 FEW030 FEW040TCU 13/04 Q1014 NOSIG

Čas: 14:21 (13:21 UTC)

Předpověď počasí

Zpráva byla vytvořena před 2 hodinami a 21 minutami, v 11:00 UTC
Předpověď platná od 01 v 12 UTC do 02 v 18 UTC
vítr z různých směrů 2 kt
Viditelnost 10 km a více
Skoro jasno ve výšce 3000 ft
Dočasný
od 01 v 18 UTC do 01 v 21 UTC
Východní vítr 12 kt
Viditelnost: 8000 m
Oblačno až skoro zataženo ve výšce 3000 ft

TAF: GMMZ 011100Z 0112/0218 VRB02KT 9999 FEW030 TEMPO 0118/0121 08012KT 8000 BKN030

Stav a předpovědi počasí z více než 4 000 letišť (zprávy METAR a TAF).

Červené a žluté tečky na mapě představují dostupné meteorologické stanice.

Když kurzor umístíte na tečku, zobrazí se název stanice.

Pak kliknutím zobrazíte stav a předpověď počasí.

Chcete-li změnit mapu, kliknutím na zelené tlačítko se znaménkem +mapu přiblížíte, kliknutím na zelené tlačítko se znaménkem – mapu oddálíte a kliknutím na zelené šipky přejdete na sousední mapy.


METAR-TAF: